Time;durP1;ratioP1;P1;durP2;ratioP2;P2;SDS_P1;SDS_P2;PMS_P1;PMS_P2;Temp;Humidity;BMP_temperature;BMP_pressure;BME280_temperature;BME280_humidity;BME280_pressure;Samples;Min_cycle;Max_cycle;Signal;HPM_P1;HPM_P2
2022/08/29 00:02:10;;;;;;;;;;;20.30;55.20;;;;;;5126137;28;19938;-45
2022/08/29 00:04:36;;;;;;;;;;;20.10;54.20;;;;;;5121208;28;20337;-45
2022/08/29 00:07:01;;;;;;;;;;;19.90;53.30;;;;;;5126627;28;19923;-48
2022/08/29 00:09:27;;;;;;;;;;;20.00;56.80;;;;;;5121233;28;20434;-49
2022/08/29 00:11:53;;;;;;;;;;;20.60;62.30;;;;;;5121460;28;19988;-48
2022/08/29 00:14:19;;;;;;;;;;;21.30;62.30;;;;;;5126792;28;20348;-48
2022/08/29 00:16:45;;;;;;;;;;;21.30;59.30;;;;;;5117011;28;20072;-48
2022/08/29 00:19:10;;;;;;;;;;;20.60;57.20;;;;;;5117895;28;20102;-47
2022/08/29 00:21:36;;;;;;;;;;;20.30;55.60;;;;;;5122264;28;19933;-45
2022/08/29 00:24:02;;;;;;;;;;;20.00;54.30;;;;;;5116681;28;19927;-45
2022/08/29 00:26:28;;;;;;;;;;;19.80;54.30;;;;;;5126378;28;19984;-52
2022/08/29 00:28:53;;;;;;;;;;;19.90;55.70;;;;;;5119665;28;20363;-47
2022/08/29 00:31:19;;;;;;;;;;;20.50;61.60;;;;;;5105558;27;19923;-47
2022/08/29 00:33:45;;;;;;;;;;;21.20;62.60;;;;;;5146224;27;19923;-49
2022/08/29 00:36:11;;;;;;;;;;;21.50;60.20;;;;;;5137543;27;19929;-47
2022/08/29 00:38:37;;;;;;;;;;;20.80;57.80;;;;;;5141764;27;20030;-45
2022/08/29 00:41:03;;;;;;;;;;;20.50;55.90;;;;;;5147054;27;19934;-46
2022/08/29 00:43:30;;;;;;;;;;;20.10;54.80;;;;;;5142189;27;19938;-46
2022/08/29 00:46:07;;;;;;;;;;;20.00;53.80;;;;;;5147433;27;20374;-54
2022/08/29 00:48:34;;;;;;;;;;;19.80;54.10;;;;;;5149465;27;19970;-46
2022/08/29 00:51:01;;;;;;;;;;;20.40;61.00;;;;;;5145191;27;19931;-46
2022/08/29 00:53:28;;;;;;;;;;;21.10;62.20;;;;;;5146673;27;20375;-47
2022/08/29 00:55:54;;;;;;;;;;;21.70;60.20;;;;;;5142677;27;19927;-45
2022/08/29 00:58:22;;;;;;;;;;;20.80;57.60;;;;;;5116039;27;19973;-47
2022/08/29 01:00:47;;;;;;;;;;;20.50;55.90;;;;;;5149144;27;20378;-45
2022/08/29 01:03:13;;;;;;;;;;;20.20;54.60;;;;;;5144798;27;19923;-45
2022/08/29 01:05:40;;;;;;;;;;;19.80;54.40;;;;;;5145040;27;20224;-45
2022/08/29 01:08:05;;;;;;;;;;;19.90;53.10;;;;;;5147072;27;20391;-49
2022/08/29 01:13:16;;;;;;;;;;;20.60;61.60;;;;;;5140942;27;20673;-46
2022/08/29 01:15:42;;;;;;;;;;;21.40;61.70;;;;;;5150046;27;19923;-47
2022/08/29 01:18:08;;;;;;;;;;;21.30;59.40;;;;;;5144458;27;19923;-45
2022/08/29 01:20:39;;;;;;;;;;;20.60;57.00;;;;;;5148587;27;19923;-45
2022/08/29 01:23:17;;;;;;;;;;;20.30;55.50;;;;;;5143608;27;19927;-48
2022/08/29 01:25:47;;;;;;;;;;;20.10;54.30;;;;;;5144455;27;19923;-49
2022/08/29 01:28:23;;;;;;;;;;;19.80;55.20;;;;;;5149973;27;19927;-46
2022/08/29 01:30:55;;;;;;;;;;;20.40;61.50;;;;;;5139514;27;19931;-44
2022/08/29 01:33:21;;;;;;;;;;;21.20;62.30;;;;;;5125610;27;19923;-45
2022/08/29 01:35:47;;;;;;;;;;;21.50;59.90;;;;;;5149696;27;20389;-46
2022/08/29 01:38:26;;;;;;;;;;;20.70;57.90;;;;;;5144003;27;19973;-46
2022/08/29 01:40:55;;;;;;;;;;;20.30;55.80;;;;;;5144053;27;19930;-45
2022/08/29 01:43:21;;;;;;;;;;;20.00;54.70;;;;;;5149664;27;19975;-46
2022/08/29 01:45:48;;;;;;;;;;;19.80;54.00;;;;;;5144254;27;20014;-47
2022/08/29 01:48:14;;;;;;;;;;;19.80;54.30;;;;;;5140808;27;19923;-47
2022/08/29 01:50:41;;;;;;;;;;;20.30;60.40;;;;;;5147613;27;19958;-46
2022/08/29 01:53:07;;;;;;;;;;;21.00;62.10;;;;;;5144007;27;20357;-44
2022/08/29 01:55:32;;;;;;;;;;;21.70;60.80;;;;;;5146779;27;19936;-56
2022/08/29 01:57:58;;;;;;;;;;;20.90;58.10;;;;;;5145754;27;19929;-48
2022/08/29 02:00:24;;;;;;;;;;;20.30;56.30;;;;;;5144111;27;19927;-45
2022/08/29 02:02:50;;;;;;;;;;;20.00;54.90;;;;;;5149369;27;19927;-45
2022/08/29 02:05:16;;;;;;;;;;;20.00;53.90;;;;;;5143614;27;19934;-47
2022/08/29 02:07:42;;;;;;;;;;;19.70;53.40;;;;;;5120606;27;19938;-47
2022/08/29 02:10:08;;;;;;;;;;;20.00;59.20;;;;;;5148947;27;19934;-45
2022/08/29 02:12:34;;;;;;;;;;;20.70;62.30;;;;;;5143692;27;19923;-45
2022/08/29 02:15:00;;;;;;;;;;;21.50;61.30;;;;;;5144907;27;19923;-53
2022/08/29 02:17:26;;;;;;;;;;;21.10;58.20;;;;;;5147888;27;19923;-46
2022/08/29 02:19:52;;;;;;;;;;;20.60;56.50;;;;;;5143553;27;19923;-46
2022/08/29 02:22:18;;;;;;;;;;;20.20;55.10;;;;;;5148820;27;19938;-45
2022/08/29 02:24:44;;;;;;;;;;;20.00;54.30;;;;;;5139780;27;21301;-46
2022/08/29 02:27:11;;;;;;;;;;;19.80;53.20;;;;;;5141253;27;20756;-47
2022/08/29 02:29:37;;;;;;;;;;;19.90;58.40;;;;;;5148415;27;20394;-45
2022/08/29 02:32:03;;;;;;;;;;;20.70;61.80;;;;;;5141734;27;19923;-46
2022/08/29 02:34:29;;;;;;;;;;;21.30;61.80;;;;;;5124779;27;20420;-47
2022/08/29 02:36:57;;;;;;;;;;;21.50;59.40;;;;;;5148524;27;19923;-44
2022/08/29 02:39:23;;;;;;;;;;;20.60;57.10;;;;;;5142995;27;19926;-48
2022/08/29 02:41:48;;;;;;;;;;;20.10;55.50;;;;;;5148598;27;19927;-45
2022/08/29 02:44:14;;;;;;;;;;;20.00;53.80;;;;;;5137959;27;20303;-53
2022/08/29 02:46:40;;;;;;;;;;;20.00;53.40;;;;;;5142551;27;19931;-47
2022/08/29 02:49:06;;;;;;;;;;;19.90;54.90;;;;;;5148280;27;19929;-46
2022/08/29 02:51:32;;;;;;;;;;;20.40;60.90;;;;;;5143060;27;20327;-48
2022/08/29 02:53:58;;;;;;;;;;;21.10;62.00;;;;;;5142782;27;20261;-47
2022/08/29 02:56:23;;;;;;;;;;;21.60;60.10;;;;;;5148235;27;19922;-50
2022/08/29 02:58:49;;;;;;;;;;;20.70;57.50;;;;;;5142872;27;20340;-45
2022/08/29 03:01:16;;;;;;;;;;;20.00;56.30;;;;;;5145170;27;19933;-46
2022/08/29 03:03:41;;;;;;;;;;;20.10;54.40;;;;;;5140523;27;20284;-46
2022/08/29 03:06:07;;;;;;;;;;;19.90;53.10;;;;;;5116170;27;19924;-47
2022/08/29 03:08:33;;;;;;;;;;;19.80;56.60;;;;;;5148172;27;20374;-46
2022/08/29 03:10:59;;;;;;;;;;;20.50;61.40;;;;;;5142650;27;20279;-47
2022/08/29 03:13:25;;;;;;;;;;;21.20;61.90;;;;;;5142593;27;20211;-47
2022/08/29 03:15:50;;;;;;;;;;;21.60;59.90;;;;;;5148075;27;19934;-47
2022/08/29 03:18:16;;;;;;;;;;;20.60;57.60;;;;;;5142472;27;19927;-47
2022/08/29 03:20:42;;;;;;;;;;;20.30;55.40;;;;;;5141618;27;20461;-56
2022/08/29 03:23:08;;;;;;;;;;;20.00;54.30;;;;;;5143680;27;19938;-46
2022/08/29 03:25:34;;;;;;;;;;;19.90;53.30;;;;;;5142516;27;20017;-45
2022/08/29 03:28:00;;;;;;;;;;;19.70;53.10;;;;;;5147785;27;19933;-47
2022/08/29 03:30:26;;;;;;;;;;;20.00;58.30;;;;;;5142152;27;20049;-46
2022/08/29 03:32:52;;;;;;;;;;;20.70;61.90;;;;;;5142423;27;19959;-45
2022/08/29 03:35:18;;;;;;;;;;;21.40;61.20;;;;;;5147700;27;20435;-46
2022/08/29 03:37:44;;;;;;;;;;;21.00;58.90;;;;;;5140294;27;19929;-51
2022/08/29 03:40:11;;;;;;;;;;;20.70;56.20;;;;;;5140170;27;20656;-53
2022/08/29 03:42:37;;;;;;;;;;;20.20;54.90;;;;;;5147205;27;19929;-45
2022/08/29 03:45:04;;;;;;;;;;;19.80;53.90;;;;;;5142289;27;19923;-49
2022/08/29 03:47:29;;;;;;;;;;;19.90;53.00;;;;;;5147672;27;19923;-46
2022/08/29 03:49:55;;;;;;;;;;;20.00;55.60;;;;;;5142098;27;20012;-45
2022/08/29 03:52:21;;;;;;;;;;;20.60;60.90;;;;;;5142188;27;19927;-49
2022/08/29 03:54:47;;;;;;;;;;;21.10;61.40;;;;;;5147367;27;20435;-46
2022/08/29 03:57:12;;;;;;;;;;;21.50;59.10;;;;;;5137843;27;19923;-49
2022/08/29 03:59:38;;;;;;;;;;;20.70;57.20;;;;;;5141120;27;19952;-48
2022/08/29 04:02:04;;;;;;;;;;;20.30;55.30;;;;;;5147626;27;19923;-46
2022/08/29 04:07:14;;;;;;;;;;;20.00;52.90;;;;;;5143730;27;19930;-56
2022/08/29 04:09:40;;;;;;;;;;;19.90;57.10;;;;;;5146180;27;19927;-46
2022/08/29 04:12:07;;;;;;;;;;;20.60;61.10;;;;;;5142080;27;19933;-46
2022/08/29 04:14:33;;;;;;;;;;;21.40;60.60;;;;;;5145152;27;20043;-48
2022/08/29 04:17:00;;;;;;;;;;;21.30;57.80;;;;;;5139231;27;19927;-45
2022/08/29 04:19:26;;;;;;;;;;;20.40;56.30;;;;;;5144102;27;20250;-45
2022/08/29 04:21:51;;;;;;;;;;;20.20;54.60;;;;;;5151435;27;19927;-46
2022/08/29 04:24:18;;;;;;;;;;;20.10;53.20;;;;;;5145824;27;19931;-45
2022/08/29 04:26:44;;;;;;;;;;;19.90;52.60;;;;;;5145825;27;19923;-47
2022/08/29 04:29:10;;;;;;;;;;;20.20;59.30;;;;;;5151464;27;20043;-47
2022/08/29 04:31:36;;;;;;;;;;;20.90;61.30;;;;;;5145734;27;19923;-49
2022/08/29 04:34:02;;;;;;;;;;;21.60;60.00;;;;;;5145288;27;20355;-48
2022/08/29 04:36:28;;;;;;;;;;;20.90;57.60;;;;;;5111673;27;19968;-45
2022/08/29 04:38:54;;;;;;;;;;;20.50;55.40;;;;;;5145392;27;19927;-45
2022/08/29 04:41:20;;;;;;;;;;;20.00;54.40;;;;;;5150959;27;19938;-46
2022/08/29 04:43:45;;;;;;;;;;;20.00;53.20;;;;;;5145468;27;19971;-48
2022/08/29 04:46:15;;;;;;;;;;;19.70;52.90;;;;;;5145409;27;20633;-47
2022/08/29 04:48:40;;;;;;;;;;;20.20;58.80;;;;;;5151006;27;19949;-46
2022/08/29 04:51:06;;;;;;;;;;;20.90;60.70;;;;;;5143291;27;19924;-49
2022/08/29 04:53:32;;;;;;;;;;;21.70;59.40;;;;;;5147280;27;19982;-49
2022/08/29 04:55:59;;;;;;;;;;;20.90;56.90;;;;;;5145172;27;19979;-45
2022/08/29 04:58:25;;;;;;;;;;;20.30;55.40;;;;;;5144792;27;20378;-48
2022/08/29 05:00:51;;;;;;;;;;;19.90;54.10;;;;;;5150508;27;19923;-49
2022/08/29 05:03:17;;;;;;;;;;;19.80;53.30;;;;;;5145296;27;20014;-46
2022/08/29 05:05:43;;;;;;;;;;;19.70;53.20;;;;;;5145100;27;20002;-46
2022/08/29 05:08:09;;;;;;;;;;;20.10;59.90;;;;;;5150348;27;19938;-47
2022/08/29 05:10:36;;;;;;;;;;;20.90;60.80;;;;;;5141137;27;19933;-46
2022/08/29 05:13:02;;;;;;;;;;;21.60;59.60;;;;;;5145686;27;20412;-54
2022/08/29 05:15:28;;;;;;;;;;;20.80;57.00;;;;;;5148622;27;19955;-47
2022/08/29 05:17:53;;;;;;;;;;;20.40;55.00;;;;;;5144822;27;19923;-46
2022/08/29 05:20:20;;;;;;;;;;;20.10;53.90;;;;;;5150351;27;19927;-46
2022/08/29 05:22:46;;;;;;;;;;;19.80;53.50;;;;;;5144648;27;19923;-45
2022/08/29 05:25:12;;;;;;;;;;;19.80;52.70;;;;;;5144660;27;19930;-45
2022/08/29 05:27:38;;;;;;;;;;;20.20;58.40;;;;;;5149446;27;20399;-47
2022/08/29 05:30:04;;;;;;;;;;;20.80;60.60;;;;;;5140000;27;20056;-46
2022/08/29 05:32:30;;;;;;;;;;;21.50;59.70;;;;;;5144390;27;19923;-46
2022/08/29 05:34:56;;;;;;;;;;;21.10;57.30;;;;;;5149838;27;19954;-45
2022/08/29 05:37:22;;;;;;;;;;;20.40;55.60;;;;;;5144286;27;19927;-45
2022/08/29 05:39:48;;;;;;;;;;;20.20;54.30;;;;;;5149747;27;20513;-45
2022/08/29 05:42:15;;;;;;;;;;;19.80;53.50;;;;;;5144289;27;19939;-45
2022/08/29 05:44:41;;;;;;;;;;;19.70;53.00;;;;;;5144024;27;19931;-45
2022/08/29 05:47:08;;;;;;;;;;;20.10;59.00;;;;;;5146039;27;19923;-48
2022/08/29 05:49:34;;;;;;;;;;;20.80;60.50;;;;;;5142586;27;20402;-48
2022/08/29 05:52:00;;;;;;;;;;;21.60;59.40;;;;;;5143999;27;20018;-47
2022/08/29 05:54:26;;;;;;;;;;;21.00;57.20;;;;;;5149800;27;20016;-46
2022/08/29 05:56:52;;;;;;;;;;;20.30;55.80;;;;;;5144108;27;19929;-46
2022/08/29 05:59:18;;;;;;;;;;;20.00;54.60;;;;;;5149502;27;19934;-45
2022/08/29 06:01:45;;;;;;;;;;;19.80;53.20;;;;;;5143816;27;19931;-45
2022/08/29 06:04:10;;;;;;;;;;;20.10;56.60;;;;;;5143591;27;19976;-48
2022/08/29 06:06:36;;;;;;;;;;;20.70;60.80;;;;;;5144071;27;19927;-49
2022/08/29 06:09:02;;;;;;;;;;;21.40;59.90;;;;;;5142117;27;19931;-46
2022/08/29 06:11:28;;;;;;;;;;;21.20;57.60;;;;;;5143591;27;19923;-46
2022/08/29 06:13:54;;;;;;;;;;;20.50;56.20;;;;;;5149041;27;19974;-48
2022/08/29 06:16:20;;;;;;;;;;;20.10;54.50;;;;;;5143417;27;20360;-48
2022/08/29 06:18:46;;;;;;;;;;;19.80;53.60;;;;;;5147350;27;20006;-54
2022/08/29 06:21:12;;;;;;;;;;;19.80;54.60;;;;;;5145877;27;19930;-47
2022/08/29 06:23:38;;;;;;;;;;;20.30;60.40;;;;;;5140138;27;19967;-47
2022/08/29 06:26:04;;;;;;;;;;;21.00;60.80;;;;;;5147018;27;19929;-46
2022/08/29 06:28:30;;;;;;;;;;;21.70;58.70;;;;;;5143497;27;20046;-45
2022/08/29 06:30:56;;;;;;;;;;;20.80;56.30;;;;;;5143141;27;19923;-45
2022/08/29 06:33:22;;;;;;;;;;;20.20;54.90;;;;;;5148594;27;20030;-45
2022/08/29 06:35:47;;;;;;;;;;;20.10;54.00;;;;;;5143193;27;20294;-47
2022/08/29 06:38:13;;;;;;;;;;;19.90;53.40;;;;;;5144478;27;20383;-54
2022/08/29 06:40:39;;;;;;;;;;;20.00;55.80;;;;;;5147379;27;20314;-48
2022/08/29 06:43:05;;;;;;;;;;;20.60;60.40;;;;;;5137130;27;19932;-45
2022/08/29 06:45:30;;;;;;;;;;;21.30;60.30;;;;;;5148344;27;19927;-45
2022/08/29 06:47:56;;;;;;;;;;;21.30;57.40;;;;;;5123025;27;20359;-45
2022/08/29 06:50:22;;;;;;;;;;;20.50;56.10;;;;;;5142881;27;20279;-44
2022/08/29 06:52:48;;;;;;;;;;;20.30;55.00;;;;;;5148272;27;19927;-47
2022/08/29 06:55:13;;;;;;;;;;;20.10;53.70;;;;;;5142721;27;19923;-45
2022/08/29 06:57:44;;;;;;;;;;;20.00;53.10;;;;;;5140959;27;19930;-45
2022/08/29 07:00:14;;;;;;;;;;;19.80;53.20;;;;;;5145136;27;19929;-48
2022/08/29 07:02:40;;;;;;;;;;;20.40;59.40;;;;;;5140788;27;20010;-46
2022/08/29 07:05:06;;;;;;;;;;;21.10;60.60;;;;;;5148087;27;19971;-45
2022/08/29 07:07:32;;;;;;;;;;;21.60;58.50;;;;;;5142551;27;19927;-45
2022/08/29 07:09:59;;;;;;;;;;;20.80;56.50;;;;;;5142652;27;20272;-49
2022/08/29 07:12:24;;;;;;;;;;;20.30;55.20;;;;;;5147878;27;19934;-45
2022/08/29 07:14:50;;;;;;;;;;;20.00;54.30;;;;;;5142633;27;20778;-45
2022/08/29 07:17:16;;;;;;;;;;;19.90;53.20;;;;;;5142563;27;20492;-47
2022/08/29 07:19:42;;;;;;;;;;;19.90;52.70;;;;;;5142847;27;19937;-46
2022/08/29 07:22:08;;;;;;;;;;;20.30;59.20;;;;;;5141894;27;19930;-45
2022/08/29 07:24:33;;;;;;;;;;;21.10;60.50;;;;;;5127936;27;19922;-50
2022/08/29 07:27:00;;;;;;;;;;;21.80;58.50;;;;;;5144048;27;19934;-45
2022/08/29 07:29:25;;;;;;;;;;;20.80;56.90;;;;;;5142119;27;20026;-47
2022/08/29 07:31:52;;;;;;;;;;;20.50;55.20;;;;;;5147702;27;19926;-48
2022/08/29 07:34:19;;;;;;;;;;;20.20;53.90;;;;;;5142365;27;19933;-45
2022/08/29 07:36:44;;;;;;;;;;;20.20;53.10;;;;;;5139365;27;20013;-47
2022/08/29 07:39:11;;;;;;;;;;;19.80;52.80;;;;;;5144978;27;19929;-47
2022/08/29 07:41:37;;;;;;;;;;;20.00;56.50;;;;;;5142106;27;19923;-47
2022/08/29 07:44:03;;;;;;;;;;;20.70;60.20;;;;;;5142760;27;19934;-53
2022/08/29 07:46:30;;;;;;;;;;;21.50;59.80;;;;;;5147310;27;19923;-46
2022/08/29 07:48:56;;;;;;;;;;;21.20;57.50;;;;;;5141965;27;19926;-48
2022/08/29 07:51:22;;;;;;;;;;;20.50;56.00;;;;;;5147632;27;20319;-49
2022/08/29 07:53:48;;;;;;;;;;;20.20;54.80;;;;;;5145803;27;19923;-48
2022/08/29 07:56:15;;;;;;;;;;;20.10;53.70;;;;;;5141476;27;19923;-48
2022/08/29 07:58:41;;;;;;;;;;;19.90;53.00;;;;;;5150754;27;19975;-46
2022/08/29 08:01:06;;;;;;;;;;;20.00;57.20;;;;;;5146092;27;19931;-47
2022/08/29 08:03:32;;;;;;;;;;;20.80;60.80;;;;;;5145976;27;19938;-46
2022/08/29 08:05:58;;;;;;;;;;;21.60;59.70;;;;;;5133174;27;19966;-46
2022/08/29 08:08:24;;;;;;;;;;;21.30;57.50;;;;;;5146075;27;19923;-46
2022/08/29 08:10:50;;;;;;;;;;;20.70;55.60;;;;;;5151528;27;19977;-45
2022/08/29 08:13:16;;;;;;;;;;;20.30;54.80;;;;;;5144177;27;20143;-47
2022/08/29 08:15:42;;;;;;;;;;;20.00;53.70;;;;;;5142299;27;20430;-46
2022/08/29 08:18:07;;;;;;;;;;;19.80;53.40;;;;;;5151236;27;19923;-45
2022/08/29 08:20:33;;;;;;;;;;;19.80;52.30;;;;;;5145803;27;19934;-44
2022/08/29 08:22:59;;;;;;;;;;;20.00;56.80;;;;;;5116352;27;20711;-46
2022/08/29 08:25:25;;;;;;;;;;;20.70;60.60;;;;;;5151375;27;19923;-47
2022/08/29 08:27:51;;;;;;;;;;;21.40;60.10;;;;;;5145585;27;19923;-46
2022/08/29 08:30:16;;;;;;;;;;;21.20;57.70;;;;;;5151233;27;20275;-45
2022/08/29 08:32:42;;;;;;;;;;;20.60;55.90;;;;;;5141379;27;19944;-45
2022/08/29 08:35:08;;;;;;;;;;;20.30;54.70;;;;;;5143821;27;20395;-45
2022/08/29 08:37:35;;;;;;;;;;;20.00;53.80;;;;;;5126299;27;19980;-49
2022/08/29 08:40:01;;;;;;;;;;;19.90;53.00;;;;;;5145311;27;20021;-45
2022/08/29 08:42:41;;;;;;;;;;;20.00;56.80;;;;;;5145401;27;19930;-46
2022/08/29 08:45:08;;;;;;;;;;;20.70;60.60;;;;;;5150962;27;19931;-47
2022/08/29 08:47:38;;;;;;;;;;;21.50;60.20;;;;;;5145155;27;20034;-46
2022/08/29 08:50:08;;;;;;;;;;;21.20;57.70;;;;;;5143460;27;19953;-52
2022/08/29 08:52:46;;;;;;;;;;;20.50;56.00;;;;;;5146182;27;20450;-46
2022/08/29 08:55:24;;;;;;;;;;;20.30;54.50;;;;;;5144866;27;19992;-47
2022/08/29 08:57:53;;;;;;;;;;;20.20;53.20;;;;;;5143683;27;20192;-46
2022/08/29 09:00:20;;;;;;;;;;;20.00;53.10;;;;;;5150575;27;20013;-45
2022/08/29 09:03:06;;;;;;;;;;;19.90;53.30;;;;;;5145128;27;19923;-46
2022/08/29 09:05:35;;;;;;;;;;;20.30;59.80;;;;;;5117072;27;20293;-46
2022/08/29 09:08:27;;;;;;;;;;;21.20;61.00;;;;;;5149932;27;20021;-52
2022/08/29 09:11:03;;;;;;;;;;;21.60;58.60;;;;;;5115962;27;19930;-46
2022/08/29 09:13:47;;;;;;;;;;;20.80;56.60;;;;;;5143507;27;19929;-46
2022/08/29 09:16:20;;;;;;;;;;;20.50;55.10;;;;;;5148954;27;19926;-49
2022/08/29 09:18:46;;;;;;;;;;;20.30;53.80;;;;;;5142492;27;19972;-46
2022/08/29 09:21:13;;;;;;;;;;;20.00;53.30;;;;;;5144731;27;19983;-45
2022/08/29 09:23:38;;;;;;;;;;;19.90;52.90;;;;;;5150072;27;20300;-45
2022/08/29 09:26:04;;;;;;;;;;;20.00;57.10;;;;;;5144560;27;19923;-45
2022/08/29 09:28:30;;;;;;;;;;;20.80;60.70;;;;;;5141401;27;19927;-52
2022/08/29 09:31:19;;;;;;;;;;;21.50;60.40;;;;;;5148085;27;20263;-45
2022/08/29 09:33:55;;;;;;;;;;;21.40;58.40;;;;;;5135987;27;19975;-45
2022/08/29 09:36:39;;;;;;;;;;;20.70;56.60;;;;;;5125771;27;19927;-52
2022/08/29 09:39:08;;;;;;;;;;;20.30;54.80;;;;;;5149757;27;19930;-47
2022/08/29 09:41:34;;;;;;;;;;;20.30;53.80;;;;;;5144274;27;21392;-47
2022/08/29 09:44:00;;;;;;;;;;;20.00;53.10;;;;;;5145986;27;19930;-52
2022/08/29 09:46:26;;;;;;;;;;;19.80;53.00;;;;;;5143229;27;19926;-50
2022/08/29 09:48:58;;;;;;;;;;;20.10;56.80;;;;;;5143197;27;19923;-49
2022/08/29 09:51:23;;;;;;;;;;;20.80;61.10;;;;;;5149640;27;19934;-46
2022/08/29 09:53:54;;;;;;;;;;;21.50;60.60;;;;;;5144244;27;19923;-46
2022/08/29 09:56:22;;;;;;;;;;;21.30;58.10;;;;;;5143855;27;19991;-49
2022/08/29 09:59:10;;;;;;;;;;;20.60;56.80;;;;;;5149511;27;19971;-46
2022/08/29 10:01:37;;;;;;;;;;;20.30;55.20;;;;;;5144085;27;19970;-45
2022/08/29 10:04:04;;;;;;;;;;;20.20;54.30;;;;;;5140598;27;19943;-46
2022/08/29 10:06:31;;;;;;;;;;;20.00;53.50;;;;;;5147270;27;20042;-45
2022/08/29 10:08:56;;;;;;;;;;;19.90;52.90;;;;;;5142670;27;19962;-45
2022/08/29 10:11:24;;;;;;;;;;;20.30;58.10;;;;;;5143670;27;19931;-47
2022/08/29 10:13:52;;;;;;;;;;;20.90;61.10;;;;;;5149122;27;19982;-45
2022/08/29 10:16:29;;;;;;;;;;;21.70;60.30;;;;;;5139735;27;19927;-46
2022/08/29 10:18:58;;;;;;;;;;;21.00;57.90;;;;;;5142508;27;20042;-48
2022/08/29 10:21:45;;;;;;;;;;;20.50;56.30;;;;;;5148869;27;19973;-46
2022/08/29 10:24:14;;;;;;;;;;;20.30;54.70;;;;;;5139319;27;20397;-46
2022/08/29 10:26:40;;;;;;;;;;;20.10;54.00;;;;;;5141840;27;20443;-50
2022/08/29 10:29:15;;;;;;;;;;;19.90;53.40;;;;;;5148786;27;19939;-45
2022/08/29 10:31:46;;;;;;;;;;;19.90;52.90;;;;;;5141351;27;20383;-46
2022/08/29 10:34:20;;;;;;;;;;;20.30;59.30;;;;;;5147909;27;19927;-54
2022/08/29 10:36:55;;;;;;;;;;;21.10;61.00;;;;;;5206849;27;19918;-46
2022/08/29 10:39:39;;;;;;;;;;;21.80;59.10;;;;;;5201204;27;19922;-46
2022/08/29 10:42:09;;;;;;;;;;;20.90;57.50;;;;;;5196958;27;19998;-55
2022/08/29 10:44:42;;;;;;;;;;;20.70;55.50;;;;;;5206259;27;20380;-44
2022/08/29 10:47:34;;;;;;;;;;;20.30;54.60;;;;;;5201096;27;19922;-48
2022/08/29 10:50:02;;;;;;;;;;;20.20;53.70;;;;;;5160405;27;20100;-45
2022/08/29 10:52:37;;;;;;;;;;;20.00;53.10;;;;;;5187488;27;19926;-45
2022/08/29 10:55:11;;;;;;;;;;;19.90;52.80;;;;;;5200670;27;19937;-47
2022/08/29 10:57:40;;;;;;;;;;;19.90;53.70;;;;;;5200732;27;20009;-52
2022/08/29 11:00:09;;;;;;;;;;;20.50;59.70;;;;;;5200898;27;19922;-50
2022/08/29 11:02:53;;;;;;;;;;;21.10;61.10;;;;;;5200224;27;19929;-47
2022/08/29 11:05:20;;;;;;;;;;;21.80;59.10;;;;;;5201911;27;19930;-53
2022/08/29 11:07:51;;;;;;;;;;;20.80;57.20;;;;;;5186863;27;20001;-45
2022/08/29 11:10:23;;;;;;;;;;;20.50;55.50;;;;;;5181646;27;19926;-47
2022/08/29 11:13:04;;;;;;;;;;;20.00;54.70;;;;;;5187228;27;19938;-45
2022/08/29 11:15:33;;;;;;;;;;;20.20;53.60;;;;;;5186364;27;19980;-45
2022/08/29 11:18:05;;;;;;;;;;;20.00;52.90;;;;;;5196802;27;19922;-47
2022/08/29 11:20:32;;;;;;;;;;;20.10;56.00;;;;;;5204161;27;19971;-47
2022/08/29 11:23:00;;;;;;;;;;;20.80;60.50;;;;;;5190962;27;20011;-47
2022/08/29 11:25:26;;;;;;;;;;;21.50;60.10;;;;;;5143204;27;19922;-45
2022/08/29 11:28:04;;;;;;;;;;;21.30;57.90;;;;;;5184311;27;19922;-45
2022/08/29 11:30:38;;;;;;;;;;;20.70;56.20;;;;;;5179015;27;19966;-48
2022/08/29 11:33:21;;;;;;;;;;;20.30;55.10;;;;;;5179013;27;19931;-46
2022/08/29 11:36:10;;;;;;;;;;;20.30;54.10;;;;;;5162675;27;19923;-49
2022/08/29 11:38:36;;;;;;;;;;;20.10;53.10;;;;;;5178531;27;19930;-52
2022/08/29 11:41:19;;;;;;;;;;;20.00;53.10;;;;;;5178976;27;19927;-46
2022/08/29 11:43:46;;;;;;;;;;;20.00;55.90;;;;;;5163928;27;19922;-47
2022/08/29 11:46:12;;;;;;;;;;;20.90;60.20;;;;;;5158139;27;20319;-46
2022/08/29 11:48:39;;;;;;;;;;;21.70;59.40;;;;;;5164595;27;19990;-48
2022/08/29 11:51:24;;;;;;;;;;;21.40;57.10;;;;;;5151810;27;19986;-46
2022/08/29 11:53:50;;;;;;;;;;;20.90;55.60;;;;;;5162303;27;20301;-46
2022/08/29 11:56:20;;;;;;;;;;;20.40;54.60;;;;;;5161140;27;19938;-47
2022/08/29 11:58:46;;;;;;;;;;;20.20;54.10;;;;;;5169904;27;20374;-44
2022/08/29 12:01:24;;;;;;;;;;;20.20;53.20;;;;;;5164548;27;20425;-49
2022/08/29 12:03:51;;;;;;;;;;;20.10;52.70;;;;;;5164481;27;19942;-46
2022/08/29 12:06:36;;;;;;;;;;;20.40;58.30;;;;;;5170140;27;19926;-46
2022/08/29 12:09:07;;;;;;;;;;;21.10;60.40;;;;;;5164364;27;19926;-47
2022/08/29 12:11:52;;;;;;;;;;;21.80;58.30;;;;;;5145721;27;19922;-45
2022/08/29 12:14:27;;;;;;;;;;;21.00;56.50;;;;;;5144635;27;19930;-48
2022/08/29 12:16:53;;;;;;;;;;;20.70;54.80;;;;;;5164163;27;20005;-46
2022/08/29 12:19:37;;;;;;;;;;;20.40;53.70;;;;;;5143950;27;19930;-49
2022/08/29 12:22:03;;;;;;;;;;;20.20;53.50;;;;;;5169723;27;20392;-47
2022/08/29 12:24:31;;;;;;;;;;;20.10;53.00;;;;;;5164064;27;19923;-45
2022/08/29 12:26:56;;;;;;;;;;;19.90;52.80;;;;;;5145582;27;19937;-47
2022/08/29 12:29:33;;;;;;;;;;;20.20;57.40;;;;;;5169757;27;20262;-48
2022/08/29 12:32:11;;;;;;;;;;;20.90;60.10;;;;;;5140813;27;20405;-46
2022/08/29 12:34:37;;;;;;;;;;;21.80;59.30;;;;;;5163403;27;20191;-49
2022/08/29 12:37:02;;;;;;;;;;;21.20;56.80;;;;;;5169545;27;19954;-46
2022/08/29 12:39:48;;;;;;;;;;;20.80;55.30;;;;;;5164080;27;19930;-46
2022/08/29 12:42:26;;;;;;;;;;;20.60;54.40;;;;;;5163893;27;20910;-46
2022/08/29 12:45:05;;;;;;;;;;;20.30;53.60;;;;;;5169424;27;19934;-50
2022/08/29 12:47:35;;;;;;;;;;;19.90;53.50;;;;;;5145205;27;19926;-47
2022/08/29 12:50:03;;;;;;;;;;;20.10;52.70;;;;;;5140549;27;19973;-50
2022/08/29 12:52:31;;;;;;;;;;;20.00;52.40;;;;;;5167978;27;19930;-47
2022/08/29 12:54:57;;;;;;;;;;;20.30;58.20;;;;;;5163635;27;19927;-46
2022/08/29 12:57:28;;;;;;;;;;;21.10;60.10;;;;;;5169329;27;20010;-48
2022/08/29 12:59:54;;;;;;;;;;;21.80;59.40;;;;;;5164811;27;19975;-45
2022/08/29 13:02:30;;;;;;;;;;;21.10;57.00;;;;;;5163746;27;19923;-45
2022/08/29 13:04:56;;;;;;;;;;;20.60;55.50;;;;;;5168946;27;19926;-47
2022/08/29 13:07:21;;;;;;;;;;;20.30;54.20;;;;;;5161072;27;20409;-56
2022/08/29 13:09:50;;;;;;;;;;;20.30;53.50;;;;;;5160482;27;20429;-47
2022/08/29 13:12:26;;;;;;;;;;;20.10;53.20;;;;;;5168849;27;20013;-48
2022/08/29 13:14:53;;;;;;;;;;;20.10;52.80;;;;;;5163237;27;20275;-45
2022/08/29 13:17:21;;;;;;;;;;;19.90;52.50;;;;;;5163176;27;20025;-46
2022/08/29 13:20:06;;;;;;;;;;;20.40;58.50;;;;;;5150279;27;20002;-48
2022/08/29 13:22:32;;;;;;;;;;;21.10;60.10;;;;;;5163300;27;19931;-47
2022/08/29 13:25:04;;;;;;;;;;;21.80;58.30;;;;;;5163164;27;19979;-48
2022/08/29 13:27:30;;;;;;;;;;;21.20;56.50;;;;;;5143518;27;19923;-47
2022/08/29 13:29:59;;;;;;;;;;;20.60;55.40;;;;;;5162795;27;19930;-45
2022/08/29 13:32:25;;;;;;;;;;;20.50;54.00;;;;;;5145515;27;19927;-53
2022/08/29 13:34:58;;;;;;;;;;;20.40;53.50;;;;;;5168258;27;19929;-49
2022/08/29 13:37:34;;;;;;;;;;;20.30;52.80;;;;;;5163164;27;19923;-45
2022/08/29 13:40:18;;;;;;;;;;;20.20;52.60;;;;;;5167863;27;19933;-54
2022/08/29 13:42:44;;;;;;;;;;;19.90;52.70;;;;;;5168485;27;19923;-46
2022/08/29 13:45:10;;;;;;;;;;;20.40;57.60;;;;;;5138178;27;19923;-54
2022/08/29 13:47:59;;;;;;;;;;;21.00;59.90;;;;;;5166865;27;20448;-52
2022/08/29 13:50:25;;;;;;;;;;;21.80;59.00;;;;;;5154372;27;19971;-46
2022/08/29 13:52:51;;;;;;;;;;;21.00;56.60;;;;;;5162877;27;20178;-47
2022/08/29 13:55:17;;;;;;;;;;;20.60;55.10;;;;;;5168136;27;19922;-44
2022/08/29 13:57:44;;;;;;;;;;;20.40;54.20;;;;;;5162820;27;20289;-46
2022/08/29 14:00:11;;;;;;;;;;;20.30;53.10;;;;;;5143928;27;19929;-45
2022/08/29 14:02:38;;;;;;;;;;;20.20;53.00;;;;;;5165053;27;19970;-49
2022/08/29 14:05:05;;;;;;;;;;;20.00;52.70;;;;;;5159971;27;19927;-44
2022/08/29 14:07:31;;;;;;;;;;;20.10;52.30;;;;;;5162332;27;20197;-49
2022/08/29 14:09:57;;;;;;;;;;;20.00;55.60;;;;;;5148986;27;19979;-46
2022/08/29 14:12:22;;;;;;;;;;;20.80;59.40;;;;;;5162678;27;20412;-46
2022/08/29 14:14:48;;;;;;;;;;;21.50;59.40;;;;;;5168029;27;19927;-53
2022/08/29 14:17:14;;;;;;;;;;;21.70;57.20;;;;;;5162893;27;19933;-46
2022/08/29 14:19:40;;;;;;;;;;;20.80;56.50;;;;;;5143811;27;19927;-46
2022/08/29 14:22:07;;;;;;;;;;;20.80;54.80;;;;;;5162568;27;19922;-46
2022/08/29 14:24:33;;;;;;;;;;;20.50;53.90;;;;;;5161383;27;19944;-44
2022/08/29 14:26:59;;;;;;;;;;;20.30;53.20;;;;;;5162491;27;19923;-48
2022/08/29 14:29:24;;;;;;;;;;;20.10;53.20;;;;;;5167760;27;19933;-46